Aeroporto :
LOGIN :

Iscrizione | Disclaimer

   EN    FR    IT 

 










Sommario :    VFR   VFR Marginale   IFR   IFR Intensivo   IFR Molto Intensivo
Visibilità : 
Base nubi : 
>= 8 km
>= 3000ft
5 / 8 km
1000 / 3000 ft
1500m / 5 km
500 / 1000 ft
800 / 1500m
200 / 500 ft
< 800m
< 200 ft
Simboli :   Temporali  Nebbia  Neve Forte  Precipitazioni Forti  Vento > 20 kt
SIGMETs :   Varie  Temporali  Ghiacco  Turbolenza  Onda orograficha  Ceneri Vulcaniche






- Altitudine del aeroporto : 915 ft
- Codice IATA : LUG


LSZA - Lugano

ULTIMO METAR :
  • 270820Z VRB01KT 9999 FEW018 SCT060 05/04 Q0992 NOSIG

METARs OBSOLETI :
  • 270750Z VRB02KT 9999 FEW018 BKN059 05/04 Q0992 NOSIG
  • 270720Z VRB02KT 9999 FEW018 BKN055 05/04 Q0992 NOSIG
  • 270650Z AUTO 33005KT 210V360 9999 BKN050 04/03 Q0992
  • 270620Z AUTO VRB01KT 9999 SCT048 03/02 Q0991
  • 270550Z AUTO 00000KT 9999 FEW024 SCT046 04/03 Q0991

TAF TAF LSZA
Valido dal 27 a 09 ore il 27 a 18 ore UTC


270825Z 2709/2718 VRB02KT 9999 FEW020 BKN060
PROB30
TEMPO 2715/2718 SHRA SCT040TCU
ATIS : +41 22 417 40 88



MetMap, La meteo Aeronautica in un colpo d'occhio ! - Copyright ORBIFLY Dicembre 2007 - Disclaimer

ORBIFLY MET'MAP TEAM :

Programmazione e sviluppo : Alexandra Zaïnal
Concezione : Baudouin d'Aumeries
Aiuto per la programmazione : Marc-Olivier Méhu
Supporto tecnico e logistico : Manuel Goepfert
Aiuto per la traduzione : Arnaldo La Scala

Contatto : metmap@orbifly.com




FONTI E CREDITI :

   NOAA